Time;durP1;ratioP1;P1;durP2;ratioP2;P2;SDS_P1;SDS_P2;PMS_P1;PMS_P2;Temp;Humidity;BMP_temperature;BMP_pressure;BME280_temperature;BME280_humidity;BME280_pressure;Samples;Min_cycle;Max_cycle;Signal;HPM_P1;HPM_P2
2021/01/04 00:02:15;;;;;;;17.57;12.97;;;;;2.70;101054.00;;;;10382677;28;20201;-76
2021/01/04 00:07:50;;;;;;;15.93;12.00;;;;;2.70;101041.00;;;;10399225;28;20565;-77
2021/01/04 00:13:30;;;;;;;17.00;11.60;;;;;2.70;101043.00;;;;10415298;28;20293;-77
2021/01/04 00:19:01;;;;;;;18.27;11.70;;;;;2.70;101031.00;;;;10453536;28;20182;-77
2021/01/04 00:24:14;;;;;;;15.80;10.80;;;;;2.70;101028.00;;;;10439195;28;20190;-77
2021/01/04 00:29:18;;;;;;;16.97;11.17;;;;;2.70;101024.00;;;;10456379;28;20221;-77
2021/01/04 00:34:25;;;;;;;16.10;12.53;;;;;2.70;101017.00;;;;10456305;28;20206;-77
2021/01/04 00:39:58;;;;;;;15.47;11.30;;;;;2.80;101013.00;;;;10438387;28;20241;-76
2021/01/04 00:45:04;;;;;;;16.30;11.63;;;;;2.80;101019.00;;;;10417882;28;20247;-76
2021/01/04 00:50:21;;;;;;;16.47;11.93;;;;;2.80;101018.00;;;;10454791;28;20178;-77
2021/01/04 00:55:25;;;;;;;15.53;11.27;;;;;2.80;101009.00;;;;10438133;28;20210;-77
2021/01/04 01:00:34;;;;;;;17.63;11.70;;;;;2.80;101005.00;;;;10438148;28;20205;-77
2021/01/04 01:05:57;;;;;;;18.17;12.07;;;;;2.80;101002.00;;;;10439140;28;20233;-76
2021/01/04 01:11:15;;;;;;;15.83;12.53;;;;;2.80;101002.00;;;;10421565;28;20195;-77
2021/01/04 01:16:26;;;;;;;15.13;11.20;;;;;2.80;101012.00;;;;10397613;28;20277;-77
2021/01/04 01:21:28;;;;;;;14.33;11.50;;;;;2.80;101015.00;;;;10383430;28;20195;-77
2021/01/04 01:27:13;;;;;;;15.23;11.13;;;;;2.70;101024.00;;;;10383861;28;20222;-78
2021/01/04 01:32:46;;;;;;;19.43;13.47;;;;;2.60;101022.00;;;;10400560;28;20246;-77
2021/01/04 01:38:05;;;;;;;16.30;11.67;;;;;2.60;101020.00;;;;10405051;28;20236;-77
2021/01/04 01:43:45;;;;;;;19.33;13.57;;;;;2.60;101030.00;;;;10404639;28;20612;-77
2021/01/04 01:49:01;;;;;;;17.43;13.53;;;;;2.60;101028.00;;;;10422724;28;20186;-77
2021/01/04 01:54:20;;;;;;;19.40;13.37;;;;;2.60;101024.00;;;;10455530;28;20581;-77
2021/01/04 01:59:37;;;;;;;19.00;13.40;;;;;2.50;101023.00;;;;10421910;28;20259;-77
2021/01/04 02:05:15;;;;;;;20.23;13.90;;;;;2.50;101013.00;;;;10445416;28;20192;-77
2021/01/04 02:10:22;;;;;;;21.47;14.00;;;;;2.50;101014.00;;;;10446536;28;20228;-77
2021/01/04 02:15:28;;;;;;;20.33;14.17;;;;;2.50;101022.00;;;;10414059;28;20241;-77
2021/01/04 02:20:48;;;;;;;20.00;14.30;;;;;2.50;101006.00;;;;10413408;28;20190;-77
2021/01/04 02:25:52;;;;;;;21.80;13.97;;;;;2.50;101008.00;;;;10461954;28;20194;-77
2021/01/04 02:30:54;;;;;;;22.13;15.07;;;;;2.50;101010.00;;;;10429000;28;20654;-77
2021/01/04 02:35:55;;;;;;;18.63;13.83;;;;;2.50;101003.00;;;;10445147;28;20214;-77
2021/01/04 02:40:56;;;;;;;20.27;14.83;;;;;2.50;101012.00;;;;10410612;28;20194;-77
2021/01/04 02:46:03;;;;;;;21.90;14.67;;;;;2.50;101013.00;;;;10428665;28;20218;-77
2021/01/04 02:51:20;;;;;;;22.37;14.03;;;;;2.50;101010.00;;;;10444744;28;20304;-77
2021/01/04 02:56:27;;;;;;;21.83;14.07;;;;;2.50;100998.00;;;;10410854;28;20206;-77
2021/01/04 03:01:32;;;;;;;20.47;14.50;;;;;2.40;100999.00;;;;10410673;28;20608;-77
2021/01/04 03:06:47;;;;;;;20.60;14.80;;;;;2.40;101000.00;;;;10444453;28;20216;-77
2021/01/04 03:11:49;;;;;;;19.57;14.63;;;;;2.40;100994.00;;;;10426922;28;20604;-77
2021/01/04 03:17:14;;;;;;;19.47;13.60;;;;;2.40;100993.00;;;;10442807;28;20257;-77
2021/01/04 03:22:17;;;;;;;21.30;14.83;;;;;2.40;100985.00;;;;10461661;28;20194;-77
2021/01/04 03:27:28;;;;;;;19.57;14.33;;;;;2.40;100985.00;;;;10460092;28;20875;-77
2021/01/04 03:32:29;;;;;;;20.63;13.30;;;;;2.40;100977.00;;;;10442642;28;20241;-77
2021/01/04 03:37:31;;;;;;;21.50;14.70;;;;;2.40;100981.00;;;;10442168;28;20249;-77
2021/01/04 03:42:33;;;;;;;19.53;13.87;;;;;2.30;100991.00;;;;10442350;28;20293;-77
2021/01/04 03:47:34;;;;;;;21.30;15.00;;;;;2.30;100987.00;;;;10443266;28;20284;-77
2021/01/04 03:52:35;;;;;;;20.17;14.57;;;;;2.30;100979.00;;;;10441962;28;20685;-76
2021/01/04 03:57:37;;;;;;;21.93;15.73;;;;;2.30;100986.00;;;;10431556;28;20182;-77
2021/01/04 04:02:40;;;;;;;21.23;14.87;;;;;2.30;100987.00;;;;10416462;28;20194;-77
2021/01/04 04:07:41;;;;;;;21.27;15.67;;;;;2.30;100984.00;;;;10389899;28;20198;-76
2021/01/04 04:12:42;;;;;;;23.07;15.20;;;;;2.30;100985.00;;;;10440709;28;20264;-77
2021/01/04 04:17:44;;;;;;;21.47;14.77;;;;;2.30;100987.00;;;;10457887;28;20653;-77
2021/01/04 04:22:50;;;;;;;25.47;16.23;;;;;2.30;100989.00;;;;10440863;28;20277;-77
2021/01/04 04:27:52;;;;;;;24.47;16.37;;;;;2.30;100986.00;;;;10442307;28;20195;-76
2021/01/04 04:32:58;;;;;;;27.17;16.80;;;;;2.30;100981.00;;;;10382228;28;20265;-77
2021/01/04 04:38:01;;;;;;;25.30;16.90;;;;;2.30;100980.00;;;;10409976;28;20199;-76
2021/01/04 04:43:12;;;;;;;28.73;16.20;;;;;2.30;100984.00;;;;10444172;28;20218;-76
2021/01/04 04:48:42;;;;;;;23.33;16.00;;;;;2.20;100981.00;;;;10382357;28;20187;-76
2021/01/04 04:53:58;;;;;;;24.67;16.30;;;;;2.20;100977.00;;;;10434961;28;20216;-76
2021/01/04 04:59:14;;;;;;;25.83;16.60;;;;;2.20;100967.00;;;;10439446;28;20201;-76
2021/01/04 05:04:15;;;;;;;25.20;17.37;;;;;2.20;100975.00;;;;10457169;28;20193;-76
2021/01/04 05:09:19;;;;;;;23.80;16.17;;;;;2.20;100975.00;;;;10416687;28;20194;-76
2021/01/04 05:14:24;;;;;;;24.20;16.20;;;;;2.10;100991.00;;;;10397766;28;20218;-76
2021/01/04 05:20:05;;;;;;;27.57;20.00;;;;;2.10;100983.00;;;;10364074;28;20226;-76
2021/01/04 05:25:37;;;;;;;23.43;17.47;;;;;2.10;100987.00;;;;10396985;28;21060;-76
2021/01/04 05:31:15;;;;;;;27.00;19.60;;;;;2.10;100984.00;;;;10413889;28;20853;-76
2021/01/04 05:36:38;;;;;;;25.73;17.73;;;;;2.00;100992.00;;;;10456484;28;20241;-76
2021/01/04 05:42:28;;;;;;;29.73;19.13;;;;;2.00;100998.00;;;;10427440;28;20257;-76
2021/01/04 05:47:47;;;;;;;24.67;17.43;;;;;2.00;101000.00;;;;10434779;28;20197;-76
2021/01/04 05:52:51;;;;;;;28.37;17.53;;;;;2.00;100997.00;;;;10413087;28;20235;-76
2021/01/04 05:57:54;;;;;;;27.43;18.33;;;;;2.00;100999.00;;;;10462479;28;20221;-76
2021/01/04 06:03:09;;;;;;;28.57;18.10;;;;;2.00;101011.00;;;;10395950;28;20276;-76
2021/01/04 06:08:26;;;;;;;28.53;18.23;;;;;2.00;101002.00;;;;10444891;28;20190;-76
2021/01/04 06:13:36;;;;;;;30.50;19.70;;;;;2.00;101008.00;;;;10461384;28;20210;-76
2021/01/04 06:18:51;;;;;;;28.80;19.63;;;;;2.10;101011.00;;;;10444782;28;20200;-76
2021/01/04 06:23:58;;;;;;;28.67;20.00;;;;;2.10;101019.00;;;;10445047;28;20190;-76
2021/01/04 06:29:03;;;;;;;32.77;21.07;;;;;2.10;101015.00;;;;10444389;28;20281;-76
2021/01/04 06:34:18;;;;;;;30.13;20.03;;;;;2.10;101011.00;;;;10443991;28;20206;-76
2021/01/04 06:39:29;;;;;;;30.37;19.67;;;;;2.10;101024.00;;;;10443916;28;20245;-76
2021/01/04 06:44:30;;;;;;;34.07;21.27;;;;;2.10;101023.00;;;;10444341;28;20260;-76
2021/01/04 06:49:42;;;;;;;34.57;21.53;;;;;2.10;101029.00;;;;10442972;28;20190;-76
2021/01/04 06:55:11;;;;;;;33.50;21.07;;;;;2.10;101030.00;;;;10461575;28;20206;-76
2021/01/04 07:00:24;;;;;;;32.40;21.43;;;;;2.10;101032.00;;;;10425978;28;20206;-76
2021/01/04 07:05:28;;;;;;;35.80;22.03;;;;;2.10;101037.00;;;;10443189;28;20248;-76
2021/01/04 07:10:48;;;;;;;35.07;22.47;;;;;2.10;101052.00;;;;10417909;28;20245;-76
2021/01/04 07:16:11;;;;;;;33.73;21.63;;;;;2.10;101051.00;;;;10385780;28;20214;-76
2021/01/04 07:21:27;;;;;;;35.13;23.70;;;;;2.10;101054.00;;;;10442207;28;20240;-76
2021/01/04 07:26:56;;;;;;;34.70;23.87;;;;;2.10;101052.00;;;;10424993;28;20190;-76
2021/01/04 07:32:04;;;;;;;35.37;21.97;;;;;2.10;101059.00;;;;10425028;28;20198;-76
2021/01/04 07:37:31;;;;;;;35.27;21.57;;;;;2.10;101071.00;;;;10457732;28;20241;-76
2021/01/04 07:42:56;;;;;;;35.47;22.67;;;;;2.10;101057.00;;;;10403513;28;20301;-76
2021/01/04 07:48:18;;;;;;;38.30;24.87;;;;;2.10;101063.00;;;;10451361;28;20209;-76
2021/01/04 07:53:56;;;;;;;36.13;25.50;;;;;2.20;101069.00;;;;10415852;28;20297;-76
2021/01/04 07:59:26;;;;;;;35.20;23.03;;;;;2.20;101067.00;;;;10402097;28;20286;-76
2021/01/04 08:04:46;;;;;;;34.60;23.30;;;;;2.20;101069.00;;;;10395855;28;20281;-76
2021/01/04 08:10:33;;;;;;;39.20;23.97;;;;;2.20;101078.00;;;;10428471;28;20194;-76
2021/01/04 08:15:41;;;;;;;39.13;25.27;;;;;2.20;101082.00;;;;10439475;28;20206;-76
2021/01/04 08:20:50;;;;;;;37.77;24.87;;;;;2.30;101082.00;;;;10432912;28;20202;-76
2021/01/04 08:26:15;;;;;;;36.67;22.93;;;;;2.30;101093.00;;;;10429313;28;20241;-76
2021/01/04 08:31:43;;;;;;;34.00;23.97;;;;;2.30;101085.00;;;;10387653;28;20202;-76
2021/01/04 08:36:44;;;;;;;35.50;23.50;;;;;2.30;101085.00;;;;10431001;28;20241;-76
2021/01/04 08:42:13;;;;;;;31.83;22.40;;;;;2.40;101096.00;;;;10454827;28;20236;-76
2021/01/04 08:47:17;;;;;;;31.90;21.63;;;;;2.40;101095.00;;;;10399782;28;20206;-76
2021/01/04 08:52:21;;;;;;;31.50;22.30;;;;;2.40;101100.00;;;;10422026;28;20248;-76
2021/01/04 08:57:41;;;;;;;30.50;22.10;;;;;2.40;101104.00;;;;10412939;28;21068;-76
2021/01/04 09:02:43;;;;;;;30.23;20.70;;;;;2.40;101114.00;;;;10410028;28;20251;-76
2021/01/04 09:07:50;;;;;;;31.97;22.13;;;;;2.40;101122.00;;;;10441144;28;20248;-76
2021/01/04 09:12:55;;;;;;;30.30;21.53;;;;;2.50;101113.00;;;;10415751;28;20271;-76
2021/01/04 09:17:59;;;;;;;28.27;19.27;;;;;2.50;101109.00;;;;10437098;28;20225;-76
2021/01/04 09:23:23;;;;;;;27.90;19.70;;;;;2.50;101118.00;;;;10446579;28;20183;-76
2021/01/04 09:28:25;;;;;;;30.43;21.17;;;;;2.50;101113.00;;;;10439118;28;20194;-76
2021/01/04 09:33:26;;;;;;;30.20;21.07;;;;;2.60;101111.00;;;;10397712;28;20211;-76
2021/01/04 09:38:27;;;;;;;28.00;21.00;;;;;2.70;101120.00;;;;10413952;28;20238;-76
2021/01/04 09:43:31;;;;;;;31.03;21.37;;;;;2.70;101129.00;;;;10432788;28;20773;-76
2021/01/04 09:48:43;;;;;;;31.77;21.50;;;;;2.70;101132.00;;;;10428042;28;20256;-76
2021/01/04 09:53:53;;;;;;;30.60;22.10;;;;;2.80;101129.00;;;;10422300;28;20223;-76
2021/01/04 09:59:03;;;;;;;32.57;22.30;;;;;2.80;101131.00;;;;10436444;28;20285;-76
2021/01/04 10:04:05;;;;;;;29.87;21.47;;;;;2.80;101138.00;;;;10456017;28;20331;-76
2021/01/04 10:09:15;;;;;;;28.30;20.70;;;;;2.80;101143.00;;;;10453969;28;20229;-76
2021/01/04 10:14:19;;;;;;;29.17;21.03;;;;;2.80;101134.00;;;;10436431;28;20345;-76
2021/01/04 10:19:35;;;;;;;28.37;20.90;;;;;2.90;101139.00;;;;10425311;28;20286;-76
2021/01/04 10:24:45;;;;;;;27.80;21.50;;;;;2.80;101130.00;;;;10424828;28;20264;-76
2021/01/04 10:29:53;;;;;;;30.67;22.53;;;;;2.90;101132.00;;;;10422008;28;20199;-76
2021/01/04 10:34:55;;;;;;;29.40;22.37;;;;;2.90;101128.00;;;;10401980;28;20260;-76
2021/01/04 10:40:09;;;;;;;33.87;25.17;;;;;3.00;101131.00;;;;10450077;28;20673;-76
2021/01/04 10:45:15;;;;;;;33.93;24.03;;;;;3.10;101132.00;;;;10414751;28;20215;-76
2021/01/04 10:50:32;;;;;;;32.87;23.93;;;;;3.30;101133.00;;;;10423927;28;20197;-76
2021/01/04 10:55:38;;;;;;;30.87;23.30;;;;;3.30;101125.00;;;;10442373;28;20735;-76
2021/01/04 11:00:50;;;;;;;31.17;23.47;;;;;3.50;101118.00;;;;10429442;28;20199;-76
2021/01/04 11:05:52;;;;;;;33.13;23.00;;;;;3.40;101114.00;;;;10410369;28;20262;-76
2021/01/04 11:11:35;;;;;;;31.63;22.87;;;;;3.40;101109.00;;;;10420189;28;20194;-76
2021/01/04 11:16:45;;;;;;;31.30;23.00;;;;;3.40;101095.00;;;;10435855;28;20292;-76
2021/01/04 11:21:47;;;;;;;34.50;25.77;;;;;3.40;101088.00;;;;10431436;28;20203;-76
2021/01/04 11:26:48;;;;;;;33.13;24.83;;;;;3.30;101096.00;;;;10406938;28;20191;-76
2021/01/04 11:31:49;;;;;;;38.67;26.90;;;;;3.30;101088.00;;;;10435539;28;20217;-76
2021/01/04 11:36:51;;;;;;;29.13;21.43;;;;;3.30;101079.00;;;;10417272;28;20260;-76
2021/01/04 11:41:52;;;;;;;31.30;22.43;;;;;3.30;101078.00;;;;10429686;28;20198;-76
2021/01/04 11:46:54;;;;;;;29.17;21.80;;;;;3.40;101076.00;;;;10383029;28;20213;-76
2021/01/04 11:51:56;;;;;;;27.43;21.27;;;;;3.40;101081.00;;;;10398758;28;20221;-76
2021/01/04 11:56:57;;;;;;;30.63;22.80;;;;;3.40;101072.00;;;;10427798;28;20202;-76
2021/01/04 12:01:59;;;;;;;31.00;24.17;;;;;3.40;101068.00;;;;10433467;28;20259;-76
2021/01/04 12:07:02;;;;;;;29.53;22.27;;;;;3.40;101072.00;;;;10440545;28;20240;-76
2021/01/04 12:12:06;;;;;;;29.57;22.40;;;;;3.40;101065.00;;;;10433492;28;20256;-76
2021/01/04 12:17:09;;;;;;;28.03;22.27;;;;;3.30;101075.00;;;;10439590;28;20202;-76
2021/01/04 12:22:11;;;;;;;32.17;23.20;;;;;3.30;101070.00;;;;10394472;28;20218;-76
2021/01/04 12:27:15;;;;;;;33.87;23.87;;;;;3.30;101073.00;;;;10398644;28;20183;-76
2021/01/04 12:32:19;;;;;;;29.20;20.60;;;;;3.30;101055.00;;;;10364352;28;20280;-77
2021/01/04 12:37:20;;;;;;;30.70;22.27;;;;;3.30;101058.00;;;;10397251;28;20238;-77
2021/01/04 12:42:21;;;;;;;30.23;22.47;;;;;3.40;101042.00;;;;10413986;28;20237;-76
2021/01/04 12:47:23;;;;;;;28.77;22.37;;;;;3.30;101041.00;;;;10405844;28;20214;-76
2021/01/04 12:52:24;;;;;;;30.20;23.27;;;;;3.30;101051.00;;;;10454396;28;20194;-77
2021/01/04 12:57:25;;;;;;;31.37;22.97;;;;;3.20;101046.00;;;;10408733;28;20265;-76
2021/01/04 13:02:26;;;;;;;30.00;22.27;;;;;3.20;101042.00;;;;10390656;28;20233;-76
2021/01/04 13:07:29;;;;;;;33.67;23.20;;;;;3.20;101043.00;;;;10413675;28;20191;-76
2021/01/04 13:12:30;;;;;;;29.70;21.77;;;;;3.20;101043.00;;;;10388869;28;20209;-76
2021/01/04 13:17:32;;;;;;;30.67;22.70;;;;;3.10;101037.00;;;;10428956;28;20229;-76
2021/01/04 13:22:33;;;;;;;33.77;23.20;;;;;3.10;101039.00;;;;10420687;28;20189;-76
2021/01/04 13:27:34;;;;;;;33.03;23.33;;;;;3.10;101032.00;;;;10437245;28;20202;-77
2021/01/04 13:32:36;;;;;;;29.77;21.87;;;;;3.10;101046.00;;;;10419918;28;20220;-76
2021/01/04 13:37:37;;;;;;;28.23;20.73;;;;;3.00;101039.00;;;;10436439;28;20214;-76
2021/01/04 13:42:39;;;;;;;32.03;21.67;;;;;3.00;101043.00;;;;10377319;28;20214;-77
2021/01/04 13:47:40;;;;;;;26.30;20.40;;;;;3.00;101046.00;;;;10451199;28;20193;-77
2021/01/04 13:52:41;;;;;;;23.70;18.13;;;;;3.00;101046.00;;;;10406784;28;20218;-77
2021/01/04 13:57:43;;;;;;;24.93;20.00;;;;;2.90;101049.00;;;;10388117;28;20215;-76
2021/01/04 14:02:44;;;;;;;25.23;18.73;;;;;2.90;101043.00;;;;10403493;28;20226;-77
2021/01/04 14:07:45;;;;;;;25.47;18.80;;;;;2.90;101047.00;;;;10412524;28;20174;-76
2021/01/04 14:12:49;;;;;;;26.73;18.60;;;;;2.90;101054.00;;;;10423927;28;20312;-77
2021/01/04 14:17:50;;;;;;;23.60;18.17;;;;;2.90;101049.00;;;;10416944;28;20191;-77
2021/01/04 14:22:51;;;;;;;27.27;20.10;;;;;2.80;101043.00;;;;10386068;28;20195;-77
2021/01/04 14:27:53;;;;;;;23.23;17.57;;;;;2.90;101050.00;;;;10403066;28;20673;-76
2021/01/04 14:32:54;;;;;;;20.87;17.03;;;;;2.90;101045.00;;;;10405985;28;20836;-77
2021/01/04 14:37:56;;;;;;;20.97;17.53;;;;;2.80;101040.00;;;;10417238;28;20257;-77
2021/01/04 14:42:59;;;;;;;22.57;17.90;;;;;2.80;101052.00;;;;10428552;28;20726;-77
2021/01/04 14:48:03;;;;;;;22.67;17.47;;;;;2.80;101051.00;;;;10469243;28;20231;-77
2021/01/04 14:53:04;;;;;;;21.80;17.90;;;;;2.80;101055.00;;;;10484231;28;20193;-77
2021/01/04 14:58:06;;;;;;;20.40;16.27;;;;;2.90;101058.00;;;;10467573;28;20244;-77
2021/01/04 15:03:07;;;;;;;21.30;15.97;;;;;2.90;101065.00;;;;10421234;28;20257;-77
2021/01/04 15:08:08;;;;;;;20.47;15.27;;;;;2.90;101058.00;;;;10422018;28;20186;-77
2021/01/04 15:13:09;;;;;;;23.50;17.20;;;;;2.90;101056.00;;;;10438677;28;20194;-76
2021/01/04 15:18:11;;;;;;;20.23;16.07;;;;;2.80;101058.00;;;;10438805;28;20195;-77
2021/01/04 15:23:14;;;;;;;20.43;15.60;;;;;2.80;101062.00;;;;10441657;28;20221;-77
2021/01/04 15:28:16;;;;;;;18.63;16.57;;;;;2.80;101063.00;;;;10425643;28;20268;-77
2021/01/04 15:33:17;;;;;;;19.97;15.97;;;;;2.80;101064.00;;;;10436981;28;20260;-76
2021/01/04 15:38:18;;;;;;;21.03;16.83;;;;;2.80;101073.00;;;;10423668;28;20553;-77
2021/01/04 15:43:20;;;;;;;27.70;20.53;;;;;2.80;101068.00;;;;10405319;28;20240;-77
2021/01/04 15:48:21;;;;;;;27.83;21.03;;;;;2.80;101064.00;;;;10439545;28;20653;-77
2021/01/04 15:53:22;;;;;;;24.57;18.27;;;;;2.80;101072.00;;;;10439806;28;20297;-77
2021/01/04 15:58:24;;;;;;;20.57;15.80;;;;;2.80;101071.00;;;;10422090;28;20206;-77
2021/01/04 16:03:26;;;;;;;22.47;15.93;;;;;2.80;101076.00;;;;10418475;28;20435;-77
2021/01/04 16:08:28;;;;;;;19.47;15.37;;;;;2.80;101070.00;;;;10441938;28;20179;-76
2021/01/04 16:13:29;;;;;;;21.70;14.67;;;;;2.80;101065.00;;;;10397531;28;20296;-76
2021/01/04 16:18:30;;;;;;;15.60;13.13;;;;;2.80;101065.00;;;;10418167;28;20238;-77
2021/01/04 16:23:32;;;;;;;14.10;11.87;;;;;2.80;101060.00;;;;10433239;28;20191;-77
2021/01/04 16:28:34;;;;;;;14.37;11.00;;;;;2.80;101068.00;;;;10424477;28;20300;-77
2021/01/04 16:33:35;;;;;;;12.73;10.07;;;;;2.80;101068.00;;;;10420600;28;20261;-77
2021/01/04 16:38:36;;;;;;;12.73;10.40;;;;;2.80;101057.00;;;;10399041;28;20190;-76
2021/01/04 16:43:37;;;;;;;13.07;10.20;;;;;2.80;101062.00;;;;10432237;28;20260;-77
2021/01/04 16:48:40;;;;;;;13.17;10.17;;;;;2.70;101064.00;;;;10397897;28;20661;-76
2021/01/04 16:53:42;;;;;;;11.60;8.37;;;;;2.70;101070.00;;;;10420963;28;20665;-76
2021/01/04 16:58:43;;;;;;;13.93;8.77;;;;;2.70;101061.00;;;;10424961;28;20207;-76
2021/01/04 17:03:48;;;;;;;12.23;7.70;;;;;2.70;101068.00;;;;10397311;28;20191;-76
2021/01/04 17:08:51;;;;;;;10.43;7.77;;;;;2.80;101073.00;;;;10421657;28;20243;-76
2021/01/04 17:13:54;;;;;;;10.30;7.50;;;;;2.80;101077.00;;;;10438138;28;20720;-76
2021/01/04 17:18:58;;;;;;;9.23;7.57;;;;;2.80;101082.00;;;;10438346;28;20212;-76
2021/01/04 17:24:04;;;;;;;12.43;9.03;;;;;2.90;101079.00;;;;10421309;28;20858;-76
2021/01/04 17:29:06;;;;;;;11.93;9.03;;;;;2.90;101075.00;;;;10429004;28;20597;-76
2021/01/04 17:34:08;;;;;;;13.80;10.93;;;;;2.90;101083.00;;;;10429081;28;20277;-76
2021/01/04 17:39:10;;;;;;;13.33;10.57;;;;;2.90;101096.00;;;;10397969;28;20191;-77
2021/01/04 17:44:13;;;;;;;13.27;10.10;;;;;2.80;101102.00;;;;10396796;28;20214;-77
2021/01/04 17:49:15;;;;;;;14.50;10.97;;;;;2.80;101095.00;;;;10396998;28;20223;-77
2021/01/04 17:54:17;;;;;;;15.00;10.53;;;;;2.80;101090.00;;;;10396162;28;20757;-77
2021/01/04 17:59:18;;;;;;;17.37;10.67;;;;;2.80;101093.00;;;;10396687;28;20199;-76
2021/01/04 18:04:21;;;;;;;19.03;12.10;;;;;2.80;101088.00;;;;10389376;28;20187;-76
2021/01/04 18:09:22;;;;;;;19.57;12.93;;;;;2.80;101096.00;;;;10396107;28;20238;-76
2021/01/04 18:14:24;;;;;;;19.57;12.90;;;;;2.80;101111.00;;;;10395029;28;20217;-77
2021/01/04 18:19:25;;;;;;;17.63;13.37;;;;;2.80;101108.00;;;;10453260;28;20186;-77
2021/01/04 18:24:26;;;;;;;18.07;13.50;;;;;2.80;101113.00;;;;10437601;28;20187;-76
2021/01/04 18:29:31;;;;;;;23.13;13.63;;;;;2.80;101113.00;;;;10453786;28;20728;-76
2021/01/04 18:34:33;;;;;;;17.73;13.13;;;;;2.90;101113.00;;;;10412138;28;20600;-77
2021/01/04 18:39:34;;;;;;;21.63;13.60;;;;;2.90;101113.00;;;;10420016;28;20245;-77
2021/01/04 18:44:36;;;;;;;19.23;12.37;;;;;2.90;101113.00;;;;10439077;28;20220;-76
2021/01/04 18:49:37;;;;;;;16.47;12.50;;;;;2.90;101114.00;;;;10443108;28;20538;-77
2021/01/04 18:54:38;;;;;;;14.47;10.30;;;;;2.90;101112.00;;;;10426956;28;20214;-76
2021/01/04 18:59:39;;;;;;;16.93;11.97;;;;;2.90;101120.00;;;;10460259;28;20530;-76
2021/01/04 19:04:41;;;;;;;15.33;11.27;;;;;2.90;101113.00;;;;10459874;28;20191;-76
2021/01/04 19:09:56;;;;;;;14.23;10.60;;;;;2.90;101106.00;;;;10426460;28;20194;-76
2021/01/04 19:14:59;;;;;;;14.03;10.73;;;;;2.90;101100.00;;;;10425915;28;20222;-76
2021/01/04 19:20:03;;;;;;;13.67;11.30;;;;;2.90;101106.00;;;;10425958;28;20198;-76
2021/01/04 19:25:06;;;;;;;15.77;11.20;;;;;2.80;101100.00;;;;10442573;28;20281;-76
2021/01/04 19:30:11;;;;;;;14.33;11.40;;;;;2.90;101109.00;;;;10460352;28;20577;-76
2021/01/04 19:35:14;;;;;;;12.87;9.23;;;;;2.80;101105.00;;;;10425005;28;20248;-76
2021/01/04 19:40:17;;;;;;;13.00;9.30;;;;;2.80;101102.00;;;;10442429;28;20227;-76
2021/01/04 19:45:18;;;;;;;15.83;10.10;;;;;2.80;101091.00;;;;10406570;28;20226;-76
2021/01/04 19:50:19;;;;;;;14.37;10.13;;;;;2.80;101104.00;;;;10457785;28;20701;-76
2021/01/04 19:55:21;;;;;;;14.53;9.70;;;;;2.80;101107.00;;;;10407492;28;20210;-76
2021/01/04 20:00:22;;;;;;;13.27;9.77;;;;;2.80;101120.00;;;;10423609;28;20268;-76
2021/01/04 20:05:23;;;;;;;11.37;8.50;;;;;2.70;101112.00;;;;10416488;28;20179;-76
2021/01/04 20:10:25;;;;;;;14.03;9.40;;;;;2.70;101113.00;;;;10366746;28;20195;-76
2021/01/04 20:15:26;;;;;;;12.13;9.70;;;;;2.70;101119.00;;;;10439776;28;20241;-76
2021/01/04 20:20:28;;;;;;;14.23;9.83;;;;;2.70;101126.00;;;;10456647;28;20205;-76
2021/01/04 20:25:30;;;;;;;12.93;9.60;;;;;2.70;101124.00;;;;10423321;28;20197;-76
2021/01/04 20:30:32;;;;;;;15.43;10.60;;;;;2.60;101127.00;;;;10439629;28;20673;-76
2021/01/04 20:35:33;;;;;;;20.30;9.80;;;;;2.60;101117.00;;;;10439380;28;20218;-76
2021/01/04 20:40:35;;;;;;;17.80;10.93;;;;;2.60;101116.00;;;;10457728;28;20197;-76
2021/01/04 20:45:37;;;;;;;16.43;10.60;;;;;2.60;101108.00;;;;10438383;28;20242;-76
2021/01/04 20:50:39;;;;;;;15.13;10.47;;;;;2.60;101110.00;;;;10438865;28;20196;-76
2021/01/04 20:55:40;;;;;;;15.43;11.47;;;;;2.60;101110.00;;;;10438508;28;20209;-76
2021/01/04 21:00:41;;;;;;;14.20;10.37;;;;;2.60;101101.00;;;;10455548;28;20198;-76
2021/01/04 21:05:43;;;;;;;19.17;12.00;;;;;2.60;101106.00;;;;10456567;28;20570;-76
2021/01/04 21:10:44;;;;;;;15.63;11.23;;;;;2.60;101093.00;;;;10455154;28;20565;-76
2021/01/04 21:15:46;;;;;;;15.70;10.73;;;;;2.50;101089.00;;;;10436068;28;20682;-76
2021/01/04 21:20:47;;;;;;;14.07;10.63;;;;;2.50;101093.00;;;;10421188;28;20297;-76
2021/01/04 21:25:51;;;;;;;17.13;11.13;;;;;2.60;101084.00;;;;10437820;28;20182;-76
2021/01/04 21:30:52;;;;;;;13.70;10.50;;;;;2.50;101091.00;;;;10404822;28;20835;-76
2021/01/04 21:35:53;;;;;;;14.13;10.33;;;;;2.50;101082.00;;;;10420832;28;20708;-76
2021/01/04 21:40:55;;;;;;;17.00;10.60;;;;;2.50;101086.00;;;;10419736;28;20653;-76
2021/01/04 21:45:57;;;;;;;15.47;10.67;;;;;2.50;101080.00;;;;10455594;28;20225;-76
2021/01/04 21:50:58;;;;;;;13.93;10.47;;;;;2.50;101088.00;;;;10421451;28;20244;-76
2021/01/04 21:56:00;;;;;;;14.43;10.70;;;;;2.50;101079.00;;;;10454296;28;20210;-76
2021/01/04 22:01:02;;;;;;;13.43;10.50;;;;;2.50;101083.00;;;;10454918;28;20187;-76
2021/01/04 22:06:04;;;;;;;13.13;10.53;;;;;2.50;101085.00;;;;10437877;28;20277;-76
2021/01/04 22:11:06;;;;;;;15.13;11.50;;;;;2.50;101082.00;;;;10454372;28;20182;-76
2021/01/04 22:16:08;;;;;;;14.57;11.17;;;;;2.50;101075.00;;;;10408643;28;20214;-76
2021/01/04 22:21:11;;;;;;;14.00;10.67;;;;;2.50;101072.00;;;;10401073;28;20222;-76
2021/01/04 22:26:21;;;;;;;14.93;10.30;;;;;2.40;101076.00;;;;10403063;28;20183;-76
2021/01/04 22:31:25;;;;;;;14.57;10.83;;;;;2.40;101065.00;;;;10439637;28;20181;-76
2021/01/04 22:36:28;;;;;;;13.93;11.43;;;;;2.40;101072.00;;;;10415499;28;20234;-76
2021/01/04 22:41:30;;;;;;;13.37;10.23;;;;;2.40;101073.00;;;;10420143;28;20250;-76
2021/01/04 22:46:36;;;;;;;15.43;11.47;;;;;2.40;101061.00;;;;10394600;28;20265;-76
2021/01/04 22:51:38;;;;;;;14.27;11.53;;;;;2.40;101069.00;;;;10403214;28;20187;-76
2021/01/04 22:56:44;;;;;;;15.03;11.40;;;;;2.40;101064.00;;;;10402102;28;20218;-76
2021/01/04 23:01:47;;;;;;;14.63;10.97;;;;;2.40;101069.00;;;;10423986;28;20272;-76
2021/01/04 23:06:50;;;;;;;16.63;11.13;;;;;2.40;101063.00;;;;10455591;28;20194;-76
2021/01/04 23:11:51;;;;;;;14.97;11.30;;;;;2.40;101069.00;;;;10431023;28;20214;-76
2021/01/04 23:16:54;;;;;;;15.97;11.80;;;;;2.40;101060.00;;;;10436706;28;20214;-76
2021/01/04 23:21:57;;;;;;;15.90;11.80;;;;;2.40;101072.00;;;;10442331;28;20708;-76
2021/01/04 23:27:06;;;;;;;15.70;12.30;;;;;2.40;101068.00;;;;10442564;28;20244;-76
2021/01/04 23:32:13;;;;;;;15.60;11.93;;;;;2.40;101061.00;;;;10457687;28;20233;-76
2021/01/04 23:37:15;;;;;;;16.00;11.87;;;;;2.40;101057.00;;;;10441656;28;20242;-76
2021/01/04 23:42:17;;;;;;;14.33;11.00;;;;;2.40;101064.00;;;;10408063;28;20547;-76
2021/01/04 23:47:22;;;;;;;16.47;12.20;;;;;2.40;101061.00;;;;10441034;28;20229;-76
2021/01/04 23:52:23;;;;;;;17.00;12.53;;;;;2.40;101065.00;;;;10424376;28;20597;-76
2021/01/04 23:57:26;;;;;;;18.10;12.17;;;;;2.40;101060.00;;;;10407420;28;20210;-76
